Aboyne, United Kingdom
Current Conditions -  °F | °C
As of 5:50 PM on Saturday 25 Oct 2014 (Local Time) from EGPD Reporting Station
Scattered Clouds Scattered Clouds  
Wind Chill: 12°   Ceiling: Unl
Heat Index: 12°   Visibility: 6mi
Dew Point:   Wind: 18mph
Humidity: 67%   Direction: 210°SSW
Pressure: 29.56"   Gusts: NA
Location:  57.08°N, 2.78°W
Report Text: EGPD 251650Z 21016KT 9999 SCT042 12/06 Q1001 NOSIG
Loading
Personal Weather Stations






























Interactive Weather Map
Tropical Storm Tracking
New forecast layout! Learn more

10-Day Weather Forecast

Advertisements
Track Severe Weather on mobile